Thursday, February 22, 2018, 10:50 AM GMT
Back to Local

CYQI, Yarmouth, N. S.

Location: , , Canada Lat: 43.833
Local Time: 10:50 AM GMT (10:50 GMT) Lon: -66.083
Time Zone: GMT Elev: 141 ft

Show me the last for .
Show Decoded

2018-02-22 10:00 METAR CYQI 221000Z 36013G21KT 15SM FEW100 FEW140 01/M06 A3048 RMK AC1AC2 AC TR
                 PRESRR SLP325 =
2018-02-22 09:00 METAR CYQI 220900Z 36017G22KT 15SM SCT085 OVC110 03/M03 A3044 RMK AC3AC5 SLP309
                 =
2018-02-22 08:00 METAR CYQI 220800Z 35018G23KT 15SM OVC085 04/M00 A3039 RMK AC8 SLP295 =
2018-02-22 07:00 METAR CYQI 220700Z 35017G25KT 15SM OVC085 05/01 A3036 RMK AC8 PRESRR SLP283 =
2018-02-22 06:00 METAR CYQI 220600Z 34018G27KT 15SM OVC085 06/02 A3032 RMK AC8 PRESRR SLP269 =
2018-02-22 05:00 METAR CYQI 220500Z 33019G25KT 10SM SCT026 OVC085 07/04 A3025 RMK SC4AC4 SLP247 =
2018-02-22 04:00 METAR CYQI 220400Z 30010KT 9SM FEW003 BKN058 OVC075 07/07 A3020 RMK SF1SC7AC1 SF
                 TR SLP231 =
2018-02-22 03:49 METAR CYQI 220349Z 30012KT 9SM FEW003 OVC058 07/07 A3021 RMK SF1SC8 SF TR SLP232
                 =

Support USWX by starting your Amazon purchase here.